DLH272 EDDF-LIML
Flight info
| Callsign | DLH272 |
|---|---|
| Flight time | 0h 53m |
| Altitude | 31000 |
| Route | ANEKI3F/25C ANEKI Y163 NATOR DCT TRA DCT RIPUS DCT GERSA DCT SOSON DCT ODINA |
| Aircraft | A21N/M-SDE2E3FGHIRWXY/LB1 |
Departure
| Time | 2026-05-07 09:11 |
|---|---|
| Airport | Frankfurt Main Airport (EDDF) |
Arrival
| Time | 2026-05-07 10:04 |
|---|---|
| Airport | Milano Linate Airport (LIML) |
| Time | Latitude | Longitude | Altitude | Speed | Heading |
|---|---|---|---|---|---|
| 2026-05-07 08:45 | 50.04973 | 8.57682 | 364 ft | 0 kts | 21° |
| 2026-05-07 09:00 | 50.04965 | 8.57677 | 359 ft | 2 kts | 21° |
| 2026-05-07 09:00 | 50.04950 | 8.57667 | 366 ft | 2 kts | 23° |
| 2026-05-07 09:00 | 50.04935 | 8.57657 | 363 ft | 2 kts | 25° |
| 2026-05-07 09:01 | 50.04920 | 8.57645 | 362 ft | 2 kts | 33° |
| 2026-05-07 09:01 | 50.04908 | 8.57628 | 365 ft | 2 kts | 79° |
| 2026-05-07 09:01 | 50.04909 | 8.57613 | 362 ft | 0 kts | 112° |
| 2026-05-07 09:07 | 50.04909 | 8.57614 | 363 ft | 1 kts | 112° |
| 2026-05-07 09:07 | 50.04899 | 8.57652 | 365 ft | 6 kts | 113° |
| 2026-05-07 09:07 | 50.04874 | 8.57740 | 363 ft | 12 kts | 113° |
| 2026-05-07 09:07 | 50.04829 | 8.57870 | 368 ft | 15 kts | 132° |
| 2026-05-07 09:08 | 50.04737 | 8.57940 | 366 ft | 15 kts | 162° |
| 2026-05-07 09:08 | 50.04645 | 8.57993 | 366 ft | 11 kts | 158° |
| 2026-05-07 09:08 | 50.04572 | 8.58038 | 371 ft | 11 kts | 160° |
| 2026-05-07 09:08 | 50.04505 | 8.58075 | 373 ft | 10 kts | 159° |
| 2026-05-07 09:09 | 50.04457 | 8.58104 | 371 ft | 8 kts | 159° |
| 2026-05-07 09:09 | 50.04405 | 8.58130 | 372 ft | 8 kts | 174° |
| 2026-05-07 09:09 | 50.04371 | 8.58093 | 373 ft | 0 kts | 244° |
| 2026-05-07 09:10 | 50.04346 | 8.58010 | 370 ft | 33 kts | 246° |
| 2026-05-07 09:10 | 50.04191 | 8.57360 | 372 ft | 95 kts | 251° |
| 2026-05-07 09:10 | 50.03888 | 8.56090 | 359 ft | 156 kts | 249° |
| 2026-05-07 09:10 | 50.03483 | 8.54349 | 565 ft | 181 kts | 252° |
| 2026-05-07 09:11 | 50.03042 | 8.52504 | 1199 ft | 179 kts | 250° |
| 2026-05-07 09:11 | 50.02385 | 8.50866 | 1860 ft | 184 kts | 225° |
| 2026-05-07 09:11 | 50.01262 | 8.49795 | 2308 ft | 200 kts | 205° |
| 2026-05-07 09:11 | 49.99856 | 8.49154 | 2590 ft | 222 kts | 187° |
| 2026-05-07 09:12 | 49.98272 | 8.49565 | 2906 ft | 245 kts | 150° |
| 2026-05-07 09:12 | 49.97004 | 8.51350 | 3644 ft | 249 kts | 130° |
| 2026-05-07 09:12 | 49.95681 | 8.53100 | 4405 ft | 257 kts | 155° |
| 2026-05-07 09:12 | 49.93921 | 8.53570 | 4939 ft | 268 kts | 185° |
| 2026-05-07 09:13 | 49.92063 | 8.53403 | 5633 ft | 274 kts | 181° |
| 2026-05-07 09:13 | 49.90114 | 8.53433 | 6451 ft | 278 kts | 180° |
| 2026-05-07 09:13 | 49.88163 | 8.53510 | 7236 ft | 282 kts | 179° |
| 2026-05-07 09:13 | 49.86211 | 8.53617 | 8048 ft | 285 kts | 180° |
| 2026-05-07 09:14 | 49.84225 | 8.53740 | 8907 ft | 287 kts | 180° |
| 2026-05-07 09:14 | 49.82224 | 8.53872 | 9776 ft | 289 kts | 181° |
| 2026-05-07 09:14 | 49.80249 | 8.54005 | 10429 ft | 298 kts | 180° |
| 2026-05-07 09:14 | 49.78132 | 8.54076 | 10734 ft | 318 kts | 185° |
| 2026-05-07 09:15 | 49.75856 | 8.53861 | 11025 ft | 339 kts | 187° |
| 2026-05-07 09:15 | 49.73506 | 8.53550 | 11330 ft | 357 kts | 187° |
| 2026-05-07 09:15 | 49.70993 | 8.53207 | 11899 ft | 366 kts | 187° |
| 2026-05-07 09:15 | 49.68441 | 8.52863 | 12613 ft | 371 kts | 186° |
| 2026-05-07 09:16 | 49.65878 | 8.52522 | 13356 ft | 375 kts | 186° |
| 2026-05-07 09:16 | 49.63253 | 8.52174 | 14034 ft | 381 kts | 186° |
| 2026-05-07 09:16 | 49.60593 | 8.51823 | 14680 ft | 386 kts | 186° |
| 2026-05-07 09:16 | 49.57924 | 8.51471 | 15389 ft | 388 kts | 186° |
| 2026-05-07 09:17 | 49.55224 | 8.51117 | 16035 ft | 392 kts | 186° |
| 2026-05-07 09:17 | 49.52527 | 8.50763 | 16665 ft | 396 kts | 186° |
| 2026-05-07 09:17 | 49.49770 | 8.50401 | 17295 ft | 399 kts | 186° |
| 2026-05-07 09:17 | 49.46991 | 8.50036 | 17931 ft | 402 kts | 186° |
| 2026-05-07 09:18 | 49.44188 | 8.49669 | 18518 ft | 406 kts | 186° |
| 2026-05-07 09:18 | 49.41360 | 8.49300 | 19027 ft | 410 kts | 186° |
| 2026-05-07 09:18 | 49.38508 | 8.48927 | 19545 ft | 413 kts | 186° |
| 2026-05-07 09:18 | 49.35635 | 8.48552 | 20048 ft | 417 kts | 187° |
| 2026-05-07 09:19 | 49.32730 | 8.48173 | 20555 ft | 420 kts | 187° |
| 2026-05-07 09:19 | 49.29811 | 8.47793 | 21051 ft | 423 kts | 187° |
| 2026-05-07 09:19 | 49.26904 | 8.47414 | 21538 ft | 427 kts | 187° |
| 2026-05-07 09:19 | 49.23934 | 8.47027 | 22021 ft | 430 kts | 187° |
| 2026-05-07 09:20 | 49.20940 | 8.46637 | 22482 ft | 433 kts | 187° |
| 2026-05-07 09:20 | 49.17929 | 8.46245 | 22947 ft | 437 kts | 187° |
| 2026-05-07 09:20 | 49.14885 | 8.45849 | 23414 ft | 440 kts | 187° |
| 2026-05-07 09:20 | 49.11819 | 8.45452 | 23821 ft | 444 kts | 187° |
| 2026-05-07 09:21 | 49.08735 | 8.45051 | 24212 ft | 446 kts | 187° |
| 2026-05-07 09:21 | 49.05668 | 8.44365 | 24634 ft | 447 kts | 192° |
| 2026-05-07 09:21 | 49.02610 | 8.43444 | 25004 ft | 449 kts | 194° |
| 2026-05-07 09:21 | 48.99594 | 8.42450 | 25350 ft | 451 kts | 194° |
| 2026-05-07 09:22 | 48.96529 | 8.41390 | 25685 ft | 453 kts | 194° |
| 2026-05-07 09:22 | 48.93453 | 8.40306 | 26028 ft | 455 kts | 194° |
| 2026-05-07 09:22 | 48.90364 | 8.39214 | 26365 ft | 457 kts | 194° |
| 2026-05-07 09:22 | 48.87255 | 8.38119 | 26687 ft | 459 kts | 194° |
| 2026-05-07 09:23 | 48.84140 | 8.37030 | 27002 ft | 461 kts | 194° |
| 2026-05-07 09:23 | 48.81007 | 8.35941 | 27415 ft | 460 kts | 194° |
| 2026-05-07 09:23 | 48.77891 | 8.34852 | 27877 ft | 459 kts | 194° |
| 2026-05-07 09:23 | 48.74785 | 8.33737 | 28216 ft | 460 kts | 194° |
| 2026-05-07 09:24 | 48.71666 | 8.32599 | 28535 ft | 461 kts | 194° |
| 2026-05-07 09:24 | 48.68599 | 8.31472 | 28987 ft | 459 kts | 194° |
| 2026-05-07 09:24 | 48.65506 | 8.30337 | 29461 ft | 456 kts | 194° |
| 2026-05-07 09:24 | 48.62420 | 8.29208 | 29806 ft | 457 kts | 194° |
| 2026-05-07 09:25 | 48.59328 | 8.28079 | 30093 ft | 457 kts | 194° |
| 2026-05-07 09:25 | 48.56240 | 8.26956 | 30492 ft | 454 kts | 194° |
| 2026-05-07 09:25 | 48.53179 | 8.25853 | 30880 ft | 452 kts | 193° |
| 2026-05-07 09:25 | 48.50064 | 8.25114 | 31020 ft | 455 kts | 185° |
| 2026-05-07 09:26 | 48.43752 | 8.25575 | 31038 ft | 455 kts | 173° |
| 2026-05-07 09:26 | 48.37548 | 8.27007 | 31036 ft | 455 kts | 171° |
| 2026-05-07 09:27 | 48.31305 | 8.28608 | 31031 ft | 454 kts | 171° |
| 2026-05-07 09:28 | 48.21977 | 8.30927 | 31034 ft | 453 kts | 171° |
| 2026-05-07 09:28 | 48.15797 | 8.32419 | 31034 ft | 453 kts | 171° |
| 2026-05-07 09:29 | 48.09569 | 8.33925 | 31032 ft | 455 kts | 171° |
| 2026-05-07 09:29 | 48.03308 | 8.35439 | 31030 ft | 455 kts | 171° |
| 2026-05-07 09:30 | 47.97076 | 8.36945 | 31035 ft | 455 kts | 171° |
| 2026-05-07 09:30 | 47.90824 | 8.38452 | 31034 ft | 455 kts | 171° |
| 2026-05-07 09:31 | 47.84606 | 8.39946 | 31039 ft | 457 kts | 171° |
| 2026-05-07 09:31 | 47.78337 | 8.41448 | 31045 ft | 455 kts | 171° |
| 2026-05-07 09:32 | 47.72113 | 8.42937 | 31049 ft | 455 kts | 171° |
| 2026-05-07 09:32 | 47.65870 | 8.44262 | 31046 ft | 456 kts | 174° |
| 2026-05-07 09:33 | 47.59601 | 8.45186 | 31046 ft | 456 kts | 175° |
| 2026-05-07 09:33 | 47.53299 | 8.46041 | 31047 ft | 455 kts | 175° |
| 2026-05-07 09:34 | 47.47015 | 8.46928 | 31046 ft | 455 kts | 175° |
| 2026-05-07 09:34 | 47.40727 | 8.47844 | 31048 ft | 453 kts | 175° |
| 2026-05-07 09:35 | 47.34493 | 8.48758 | 31047 ft | 453 kts | 175° |
| 2026-05-07 09:35 | 47.28216 | 8.49676 | 31046 ft | 453 kts | 175° |
| 2026-05-07 09:36 | 47.21940 | 8.50592 | 31046 ft | 453 kts | 175° |
| 2026-05-07 09:36 | 47.15673 | 8.51505 | 31047 ft | 453 kts | 175° |
| 2026-05-07 09:37 | 47.09406 | 8.52416 | 31046 ft | 453 kts | 175° |
| 2026-05-07 09:37 | 47.03174 | 8.53319 | 31048 ft | 454 kts | 175° |
| 2026-05-07 09:38 | 46.96890 | 8.54226 | 31044 ft | 454 kts | 175° |
| 2026-05-07 09:38 | 46.90592 | 8.55134 | 31050 ft | 454 kts | 175° |
| 2026-05-07 09:39 | 46.84300 | 8.56036 | 31052 ft | 454 kts | 175° |
| 2026-05-07 09:39 | 46.78009 | 8.56937 | 31062 ft | 454 kts | 175° |
| 2026-05-07 09:40 | 46.71764 | 8.57830 | 31043 ft | 454 kts | 175° |
| 2026-05-07 09:40 | 46.65478 | 8.58727 | 31046 ft | 454 kts | 175° |
| 2026-05-07 09:41 | 46.59197 | 8.59622 | 31039 ft | 452 kts | 176° |
| 2026-05-07 09:41 | 46.52951 | 8.60509 | 31037 ft | 451 kts | 176° |
| 2026-05-07 09:42 | 46.46746 | 8.61388 | 31029 ft | 451 kts | 176° |
| 2026-05-07 09:42 | 46.40499 | 8.62271 | 31017 ft | 451 kts | 176° |
| 2026-05-07 09:43 | 46.34248 | 8.63152 | 31022 ft | 451 kts | 176° |
| 2026-05-07 09:43 | 46.28006 | 8.64030 | 31015 ft | 451 kts | 176° |
| 2026-05-07 09:44 | 46.21754 | 8.64907 | 31012 ft | 451 kts | 177° |
| 2026-05-07 09:44 | 46.15564 | 8.65775 | 31016 ft | 449 kts | 176° |
| 2026-05-07 09:45 | 46.09433 | 8.67394 | 31015 ft | 453 kts | 159° |
| 2026-05-07 09:45 | 46.03821 | 8.71580 | 31018 ft | 455 kts | 153° |
| 2026-05-07 09:46 | 45.98272 | 8.75982 | 31022 ft | 457 kts | 154° |
| 2026-05-07 09:46 | 45.92732 | 8.80331 | 31020 ft | 457 kts | 154° |
| 2026-05-07 09:47 | 45.87149 | 8.84686 | 31020 ft | 457 kts | 154° |
| 2026-05-07 09:47 | 45.81591 | 8.89007 | 31003 ft | 457 kts | 155° |
| 2026-05-07 09:47 | 45.78809 | 8.91166 | 30765 ft | 451 kts | 155° |
| 2026-05-07 09:48 | 45.76088 | 8.93279 | 30145 ft | 440 kts | 155° |
| 2026-05-07 09:48 | 45.73397 | 8.95362 | 28980 ft | 438 kts | 155° |
| 2026-05-07 09:48 | 45.70774 | 8.97389 | 28043 ft | 432 kts | 155° |
| 2026-05-07 09:48 | 45.68152 | 8.99415 | 27199 ft | 424 kts | 154° |
| 2026-05-07 09:49 | 45.65592 | 9.01391 | 26570 ft | 413 kts | 154° |
| 2026-05-07 09:49 | 45.63095 | 9.03315 | 25941 ft | 403 kts | 154° |
| 2026-05-07 09:49 | 45.60648 | 9.05196 | 25237 ft | 395 kts | 155° |
| 2026-05-07 09:49 | 45.58252 | 9.07032 | 24506 ft | 390 kts | 155° |
| 2026-05-07 09:50 | 45.55869 | 9.08858 | 23839 ft | 384 kts | 155° |
| 2026-05-07 09:50 | 45.53531 | 9.10649 | 23120 ft | 379 kts | 155° |
| 2026-05-07 09:50 | 45.51232 | 9.12317 | 22334 ft | 371 kts | 163° |
| 2026-05-07 09:50 | 45.48725 | 9.13075 | 21555 ft | 360 kts | 178° |
| 2026-05-07 09:51 | 45.46282 | 9.13354 | 20868 ft | 354 kts | 179° |
| 2026-05-07 09:51 | 45.43843 | 9.13581 | 20149 ft | 349 kts | 179° |
| 2026-05-07 09:51 | 45.41434 | 9.13814 | 19467 ft | 345 kts | 179° |
| 2026-05-07 09:51 | 45.39056 | 9.14059 | 18785 ft | 340 kts | 179° |
| 2026-05-07 09:52 | 45.36705 | 9.14309 | 18106 ft | 336 kts | 179° |
| 2026-05-07 09:52 | 45.34408 | 9.14560 | 17400 ft | 332 kts | 179° |
| 2026-05-07 09:52 | 45.32122 | 9.14812 | 16718 ft | 327 kts | 179° |
| 2026-05-07 09:52 | 45.29870 | 9.15061 | 16058 ft | 322 kts | 178° |
| 2026-05-07 09:53 | 45.27675 | 9.15306 | 15432 ft | 318 kts | 178° |
| 2026-05-07 09:53 | 45.25484 | 9.15550 | 14802 ft | 314 kts | 178° |
| 2026-05-07 09:53 | 45.23320 | 9.15791 | 14195 ft | 310 kts | 178° |
| 2026-05-07 09:53 | 45.21189 | 9.16158 | 13527 ft | 309 kts | 166° |
| 2026-05-07 09:54 | 45.19276 | 9.17520 | 12790 ft | 311 kts | 141° |
| 2026-05-07 09:54 | 45.17918 | 9.19878 | 12106 ft | 310 kts | 116° |
| 2026-05-07 09:54 | 45.17364 | 9.22788 | 11471 ft | 307 kts | 91° |
| 2026-05-07 09:54 | 45.17544 | 9.25738 | 10873 ft | 303 kts | 83° |
| 2026-05-07 09:55 | 45.17799 | 9.28684 | 10234 ft | 300 kts | 83° |
| 2026-05-07 09:55 | 45.18051 | 9.31613 | 9582 ft | 298 kts | 83° |
| 2026-05-07 09:55 | 45.18304 | 9.34502 | 8901 ft | 292 kts | 83° |
| 2026-05-07 09:55 | 45.18418 | 9.37340 | 7976 ft | 286 kts | 99° |
| 2026-05-07 09:56 | 45.17770 | 9.39950 | 7031 ft | 279 kts | 126° |
| 2026-05-07 09:56 | 45.16408 | 9.41815 | 6138 ft | 270 kts | 153° |
| 2026-05-07 09:56 | 45.14647 | 9.42572 | 5208 ft | 264 kts | 180° |
| 2026-05-07 09:56 | 45.12887 | 9.42069 | 4368 ft | 259 kts | 208° |
| 2026-05-07 09:57 | 45.11554 | 9.40445 | 3836 ft | 258 kts | 237° |
| 2026-05-07 09:57 | 45.10973 | 9.38085 | 3670 ft | 256 kts | 268° |
| 2026-05-07 09:57 | 45.11308 | 9.35650 | 3868 ft | 252 kts | 294° |
| 2026-05-07 09:57 | 45.12154 | 9.33595 | 4018 ft | 230 kts | 302° |
| 2026-05-07 09:58 | 45.13208 | 9.32010 | 4018 ft | 221 kts | 326° |
| 2026-05-07 09:58 | 45.14613 | 9.31127 | 4001 ft | 224 kts | 342° |
| 2026-05-07 09:58 | 45.16154 | 9.30748 | 3995 ft | 226 kts | 353° |
| 2026-05-07 09:58 | 45.17718 | 9.30574 | 3989 ft | 222 kts | 355° |
| 2026-05-07 09:59 | 45.19247 | 9.30422 | 3998 ft | 226 kts | 354° |
| 2026-05-07 09:59 | 45.20828 | 9.30262 | 3996 ft | 229 kts | 354° |
| 2026-05-07 09:59 | 45.22425 | 9.30093 | 3993 ft | 231 kts | 354° |
| 2026-05-07 09:59 | 45.24023 | 9.29917 | 3998 ft | 231 kts | 354° |
| 2026-05-07 10:00 | 45.25624 | 9.29740 | 3918 ft | 230 kts | 354° |
| 2026-05-07 10:00 | 45.27182 | 9.29567 | 3659 ft | 217 kts | 354° |
| 2026-05-07 10:00 | 45.28640 | 9.29412 | 3337 ft | 204 kts | 354° |
| 2026-05-07 10:00 | 45.30027 | 9.29263 | 3009 ft | 195 kts | 354° |
| 2026-05-07 10:01 | 45.31323 | 9.29124 | 2762 ft | 183 kts | 354° |
| 2026-05-07 10:01 | 45.32558 | 9.28993 | 2538 ft | 171 kts | 353° |
| 2026-05-07 10:01 | 45.33712 | 9.28868 | 2284 ft | 162 kts | 354° |
| 2026-05-07 10:01 | 45.34793 | 9.28751 | 2079 ft | 151 kts | 353° |
| 2026-05-07 10:02 | 45.35829 | 9.28639 | 1869 ft | 149 kts | 352° |
| 2026-05-07 10:02 | 45.36866 | 9.28527 | 1674 ft | 150 kts | 354° |
| 2026-05-07 10:02 | 45.37902 | 9.28416 | 1472 ft | 149 kts | 353° |
| 2026-05-07 10:02 | 45.38927 | 9.28307 | 1282 ft | 147 kts | 354° |
| 2026-05-07 10:03 | 45.39954 | 9.28196 | 1074 ft | 148 kts | 355° |
| 2026-05-07 10:03 | 45.40959 | 9.28088 | 841 ft | 146 kts | 355° |
| 2026-05-07 10:03 | 45.41964 | 9.27985 | 639 ft | 144 kts | 356° |
| 2026-05-07 10:03 | 45.42955 | 9.27873 | 466 ft | 143 kts | 355° |
| 2026-05-07 10:04 | 45.43940 | 9.27766 | 365 ft | 141 kts | 356° |
| 2026-05-07 10:04 | 45.44779 | 9.27677 | 365 ft | 95 kts | 356° |
| 2026-05-07 10:04 | 45.45277 | 9.27650 | 362 ft | 47 kts | 17° |
| 2026-05-07 10:04 | 45.45491 | 9.27811 | 371 ft | 23 kts | 8° |
| 2026-05-07 10:05 | 45.45601 | 9.27816 | 366 ft | 13 kts | 1° |
| 2026-05-07 10:05 | 45.45692 | 9.27818 | 366 ft | 14 kts | 1° |
| 2026-05-07 10:05 | 45.45794 | 9.27821 | 372 ft | 15 kts | 1° |
| 2026-05-07 10:05 | 45.45894 | 9.27843 | 371 ft | 14 kts | 49° |
| 2026-05-07 10:06 | 45.45931 | 9.27912 | 370 ft | 7 kts | 20° |
| 2026-05-07 10:06 | 45.45967 | 9.27910 | 372 ft | 5 kts | 360° |
| 2026-05-07 10:06 | 45.45980 | 9.27910 | 371 ft | 0 kts | 0° |